Terminal Aerodrome Forecast
Issued by NWS

Home | Current Version | Previous Version | Text Only | Print | Product List | Glossary On
Versions: 1 2 3 4 5 6 7 8 9 10 11 12 13 14
721
FTUS45 KTFX 232320
TAFCTB
TAF
KCTB 232320Z 2400/2424 25015G22KT P6SM FEW090 FEW250
     FM240300 25008KT P6SM SCT090 SCT250
     FM240800 31015G20KT P6SM SCT050 SCT250
     FM241600 VRB06KT P6SM FEW090 FEW250=

USA.gov is the U.S. government's official web portal to all federal, state and local government web resources and services.